createdAt,value
2018-05-02T00:00:50.616Z,82.26
2018-05-02T00:01:50.569Z,83.01
2018-05-02T00:02:50.525Z,82.16
2018-05-02T00:03:50.477Z,82.45
2018-05-02T00:04:50.435Z,81.97
2018-05-02T00:05:50.389Z,81.59
2018-05-02T00:06:50.347Z,82.26
2018-05-02T00:07:50.302Z,81.68
2018-05-02T00:08:50.253Z,81.87
2018-05-02T00:09:50.210Z,81.49
2018-05-02T00:10:50.165Z,81.40
2018-05-02T00:11:50.119Z,81.87
2018-05-02T00:12:50.072Z,82.07
2018-05-02T00:13:50.028Z,81.87
2018-05-02T00:14:49.983Z,81.68
2018-05-02T00:15:49.938Z,81.97
2018-05-02T00:16:49.892Z,82.26
2018-05-02T00:17:49.848Z,82.07
2018-05-02T00:18:49.802Z,82.26
2018-05-02T00:19:49.763Z,81.97
2018-05-02T00:20:49.713Z,82.45
2018-05-02T00:21:49.666Z,83.01
2018-05-02T00:22:49.624Z,82.73
2018-05-02T00:23:49.577Z,82.35
2018-05-02T00:24:49.535Z,82.26
2018-05-02T00:25:49.489Z,82.26
2018-05-02T00:26:49.443Z,82.92
2018-05-02T00:27:49.395Z,82.16
2018-05-02T00:28:49.353Z,82.35
2018-05-02T00:29:49.316Z,82.54
2018-05-02T00:30:49.263Z,82.54
2018-05-02T00:31:49.216Z,82.07
2018-05-02T00:32:49.170Z,81.68
2018-05-02T00:33:49.125Z,81.59
2018-05-02T00:34:49.261Z,81.78
2018-05-02T00:35:49.036Z,81.78
2018-05-02T00:36:48.994Z,81.78
2018-05-02T00:37:48.947Z,81.78
2018-05-02T00:38:48.901Z,80.93
2018-05-02T00:39:48.855Z,81.06
2018-05-02T00:40:48.815Z,81.12
2018-05-02T00:41:48.767Z,81.68
2018-05-02T00:42:48.732Z,81.68
2018-05-02T00:43:48.677Z,82.16
2018-05-02T00:44:48.630Z,82.16
2018-05-02T00:45:48.586Z,81.78
2018-05-02T00:46:48.541Z,81.87
2018-05-02T00:47:48.493Z,82.26
2018-05-02T00:48:48.449Z,82.16
2018-05-02T00:49:48.406Z,82.26
2018-05-02T00:50:48.362Z,82.26
2018-05-02T00:51:48.338Z,82.35
2018-05-02T00:52:48.268Z,83.01
2018-05-02T00:53:48.231Z,82.64
2018-05-02T00:54:48.180Z,82.54
2018-05-02T00:55:48.134Z,82.82
2018-05-02T00:56:48.089Z,83.01
2018-05-02T00:57:48.050Z,83.59
2018-05-02T00:58:48.010Z,83.20
2018-05-02T00:59:47.953Z,83.39
2018-05-02T01:00:47.911Z,83.30
2018-05-02T01:01:47.867Z,83.20
2018-05-02T01:02:47.838Z,83.59
2018-05-02T01:03:47.775Z,83.49
2018-05-02T01:04:47.728Z,83.39
2018-05-02T01:05:47.686Z,83.30
2018-05-02T01:06:47.636Z,83.49
2018-05-02T01:07:47.593Z,83.78
2018-05-02T01:08:47.547Z,83.49
2018-05-02T01:09:47.503Z,83.39
2018-05-02T01:10:47.459Z,83.20
2018-05-02T01:11:47.411Z,84.06
2018-05-02T01:12:47.372Z,84.06
2018-05-02T01:13:47.324Z,84.34
2018-05-02T01:14:47.276Z,84.34
2018-05-02T01:15:47.235Z,84.16
2018-05-02T01:16:47.184Z,84.34
2018-05-02T01:17:47.140Z,84.53
2018-05-02T01:18:47.096Z,84.53
2018-05-02T01:19:47.049Z,84.63
2018-05-02T01:20:47.004Z,84.91
2018-05-02T01:21:46.960Z,84.63
2018-05-02T01:22:46.916Z,84.91
2018-05-02T01:23:46.868Z,84.72
2018-05-02T01:24:46.826Z,84.40
2018-05-02T01:25:46.778Z,84.87
2018-05-02T01:26:46.730Z,84.72
2018-05-02T01:27:46.684Z,84.53
2018-05-02T01:28:46.647Z,85.20
2018-05-02T01:29:46.596Z,85.58
2018-05-02T01:30:46.552Z,85.53
2018-05-02T01:31:46.507Z,85.35
2018-05-02T01:32:46.458Z,85.68
2018-05-02T01:33:46.414Z,85.25
2018-05-02T01:34:46.378Z,85.82
2018-05-02T01:35:46.325Z,85.63
2018-05-02T01:36:46.281Z,85.35
2018-05-02T01:37:46.233Z,85.16
2018-05-02T01:38:46.190Z,85.25
2018-05-02T01:39:46.145Z,85.63
2018-05-02T01:40:46.097Z,85.72
2018-05-02T01:41:46.050Z,85.72
2018-05-02T01:42:46.011Z,85.63
2018-05-02T01:43:45.959Z,85.63
2018-05-02T01:44:45.914Z,85.82
2018-05-02T01:45:45.874Z,85.53
2018-05-02T01:46:45.826Z,85.82
2018-05-02T01:47:45.779Z,86.30
2018-05-02T01:48:45.734Z,85.91
2018-05-02T01:49:45.689Z,86.01
2018-05-02T01:50:45.641Z,86.49
2018-05-02T01:51:45.600Z,86.68
2018-05-02T01:52:45.551Z,86.87
2018-05-02T01:53:45.507Z,87.05
2018-05-02T01:54:45.462Z,87.15
2018-05-02T01:55:45.414Z,87.24
2018-05-02T01:56:45.369Z,86.01
2018-05-02T01:57:45.325Z,86.01
2018-05-02T01:58:45.279Z,86.20
2018-05-02T01:59:45.233Z,86.77
2018-05-02T02:00:45.188Z,87.15
2018-05-02T02:01:45.145Z,86.58
2018-05-02T02:02:45.095Z,86.49
2018-05-02T02:03:45.052Z,87.24
2018-05-02T02:04:45.004Z,86.87
2018-05-02T02:05:44.966Z,86.39
2018-05-02T02:06:44.919Z,85.63
2018-05-02T02:07:44.869Z,85.53
2018-05-02T02:08:44.826Z,86.20
2018-05-02T02:09:44.776Z,86.11
2018-05-02T02:10:44.731Z,86.01
2018-05-02T02:11:44.688Z,85.82
2018-05-02T02:12:44.646Z,86.30
2018-05-02T02:13:44.597Z,85.53
2018-05-02T02:14:44.550Z,85.16
2018-05-02T02:15:44.504Z,85.25
2018-05-02T02:16:44.460Z,85.35
2018-05-02T02:17:44.417Z,85.30
2018-05-02T02:18:44.368Z,85.58
2018-05-02T02:19:44.322Z,85.35
2018-05-02T02:20:44.276Z,85.53
2018-05-02T02:21:44.230Z,85.63
2018-05-02T02:22:44.184Z,85.82
2018-05-02T02:23:44.140Z,86.11
2018-05-02T02:24:44.095Z,86.20
2018-05-02T02:25:44.050Z,86.30
2018-05-02T02:26:44.002Z,85.82
2018-05-02T02:27:43.962Z,85.53
2018-05-02T02:28:43.913Z,85.44
2018-05-02T02:29:43.869Z,85.06
2018-05-02T02:30:43.831Z,85.16
2018-05-02T02:31:43.776Z,85.35
2018-05-02T02:32:43.730Z,86.01
2018-05-02T02:33:43.685Z,85.53
2018-05-02T02:34:43.640Z,85.72
2018-05-02T02:35:43.594Z,85.53
2018-05-02T02:36:43.553Z,86.30
2018-05-02T02:37:43.506Z,86.11
2018-05-02T02:38:43.460Z,86.20
2018-05-02T02:39:43.412Z,86.20
2018-05-02T02:40:43.367Z,86.11
2018-05-02T02:41:43.322Z,85.91
2018-05-02T02:42:43.275Z,85.91
2018-05-02T02:43:43.230Z,86.01
2018-05-02T02:44:43.182Z,86.01
2018-05-02T02:45:43.142Z,86.58
2018-05-02T02:46:43.095Z,86.68
2018-05-02T02:47:43.047Z,86.58
2018-05-02T02:48:43.006Z,86.39
2018-05-02T02:49:42.959Z,86.77
2018-05-02T02:50:42.911Z,86.87
2018-05-02T02:51:42.865Z,87.15
2018-05-02T02:52:42.824Z,86.77
2018-05-02T02:53:42.782Z,87.05
2018-05-02T02:54:42.729Z,86.96
2018-05-02T02:55:42.682Z,86.77
2018-05-02T02:56:42.638Z,86.87
2018-05-02T02:57:42.590Z,86.96
2018-05-02T02:58:42.547Z,86.77
2018-05-02T02:59:42.499Z,87.53
2018-05-02T03:00:42.455Z,87.43
2018-05-02T03:01:42.409Z,87.43
2018-05-02T03:02:42.366Z,87.82
2018-05-02T03:03:42.321Z,88.01
2018-05-02T03:04:42.275Z,88.20
2018-05-02T03:05:42.228Z,87.72
2018-05-02T03:06:42.244Z,88.29
2018-05-02T03:07:42.137Z,88.24
2018-05-02T03:08:42.100Z,88.20
2018-05-02T03:09:42.044Z,88.48
2018-05-02T03:10:41.998Z,88.62
2018-05-02T03:11:41.963Z,88.53
2018-05-02T03:12:41.903Z,88.91
2018-05-02T03:13:41.861Z,88.91
2018-05-02T03:14:41.828Z,88.91
2018-05-02T03:15:41.769Z,88.34
2018-05-02T03:16:41.723Z,88.53
2018-05-02T03:17:41.678Z,88.34
2018-05-02T03:18:41.631Z,89.29
2018-05-02T03:19:41.584Z,89.20
2018-05-02T03:20:41.538Z,88.72
2018-05-02T03:21:41.491Z,88.81
2018-05-02T03:22:41.447Z,89.29
2018-05-02T03:23:41.400Z,89.20
2018-05-02T03:24:41.353Z,89.58
2018-05-02T03:25:41.309Z,89.76
2018-05-02T03:26:41.262Z,89.58
2018-05-02T03:27:41.222Z,89.00
2018-05-02T03:28:41.170Z,89.39
2018-05-02T03:29:41.127Z,89.48
2018-05-02T03:30:41.082Z,89.29
2018-05-02T03:31:41.032Z,89.39
2018-05-02T03:32:40.993Z,90.05
2018-05-02T03:33:40.939Z,90.05
2018-05-02T03:34:40.894Z,90.14
2018-05-02T03:35:40.848Z,89.67
2018-05-02T03:36:40.809Z,90.05
2018-05-02T03:37:40.757Z,89.76
2018-05-02T03:38:40.713Z,90.14
2018-05-02T03:39:40.665Z,90.43
2018-05-02T03:40:40.621Z,90.52
2018-05-02T03:41:40.578Z,90.43
2018-05-02T03:42:40.528Z,90.43
2018-05-02T03:43:40.483Z,90.10
2018-05-02T03:44:40.442Z,90.38
2018-05-02T03:45:40.388Z,90.10
2018-05-02T03:46:40.349Z,90.48
2018-05-02T03:47:40.295Z,90.29
2018-05-02T03:48:40.249Z,90.76
2018-05-02T03:49:40.209Z,90.57
2018-05-02T03:50:40.157Z,90.48
2018-05-02T03:51:40.110Z,91.24
2018-05-02T03:52:40.070Z,91.24
2018-05-02T03:53:40.020Z,90.86
2018-05-02T03:54:39.973Z,90.95
2018-05-02T03:55:39.929Z,91.05
2018-05-02T03:56:39.881Z,91.24
2018-05-02T03:57:39.834Z,91.42
2018-05-02T03:58:39.789Z,90.76
2018-05-02T03:59:39.756Z,91.42
2018-05-02T04:00:39.697Z,91.14
2018-05-02T04:01:39.650Z,91.52
2018-05-02T04:02:39.608Z,91.42
2018-05-02T04:03:39.558Z,91.42
2018-05-02T04:04:39.517Z,91.33
2018-05-02T04:05:39.465Z,91.71
2018-05-02T04:06:39.423Z,91.71
2018-05-02T04:07:40.128Z,91.52
2018-05-02T04:08:39.357Z,91.99
2018-05-02T04:09:39.281Z,91.80
2018-05-02T04:10:39.232Z,91.99
2018-05-02T04:11:39.186Z,91.90
2018-05-02T04:12:39.141Z,92.47
2018-05-02T04:13:39.096Z,92.28
2018-05-02T04:14:39.050Z,91.99
2018-05-02T04:15:39.001Z,92.57
2018-05-02T04:16:38.956Z,92.57
2018-05-02T04:17:38.913Z,92.57
2018-05-02T04:18:38.901Z,92.94
2018-05-02T04:19:38.814Z,92.57
2018-05-02T04:20:38.771Z,93.13
2018-05-02T04:21:38.728Z,93.23
2018-05-02T04:22:38.674Z,93.04
2018-05-02T04:23:38.631Z,92.85
2018-05-02T04:24:38.589Z,93.32
2018-05-02T04:25:38.538Z,93.61
2018-05-02T04:26:38.495Z,94.18
2018-05-02T04:27:38.447Z,94.18
2018-05-02T04:28:38.408Z,93.99
2018-05-02T04:29:38.353Z,94.27
2018-05-02T04:30:38.322Z,93.70
2018-05-02T04:31:38.262Z,93.99
2018-05-02T04:32:38.212Z,93.61
2018-05-02T04:33:38.170Z,94.18
2018-05-02T04:34:38.122Z,93.89
2018-05-02T04:35:38.074Z,93.89
2018-05-02T04:36:38.029Z,93.70
2018-05-02T04:37:37.985Z,93.61
2018-05-02T04:38:37.935Z,93.89
2018-05-02T04:39:37.890Z,93.61
2018-05-02T04:40:37.842Z,93.89
2018-05-02T04:41:37.797Z,93.32
2018-05-02T04:42:37.753Z,92.76
2018-05-02T04:43:37.711Z,93.04
2018-05-02T04:44:37.656Z,93.04
2018-05-02T04:45:37.615Z,93.41
2018-05-02T04:46:37.564Z,93.32
2018-05-02T04:47:37.518Z,93.23
2018-05-02T04:48:37.471Z,92.14
2018-05-02T04:49:37.423Z,92.04
2018-05-02T04:50:37.379Z,92.61
2018-05-02T04:51:37.331Z,92.33
2018-05-02T04:52:37.322Z,92.42
2018-05-02T04:53:37.240Z,92.42
2018-05-02T04:54:37.195Z,92.71
2018-05-02T04:55:37.150Z,92.42
2018-05-02T04:56:37.100Z,92.42
2018-05-02T04:57:37.054Z,92.42
2018-05-02T04:58:37.009Z,92.42
2018-05-02T04:59:36.979Z,92.61
2018-05-02T05:00:36.919Z,92.61
2018-05-02T05:01:36.870Z,92.52
2018-05-02T05:02:36.827Z,92.71
2018-05-02T05:03:36.801Z,92.52
2018-05-02T05:04:36.738Z,92.71
2018-05-02T05:05:36.690Z,92.90
2018-05-02T05:06:36.683Z,92.42
2018-05-02T05:07:36.595Z,92.42
2018-05-02T05:08:40.507Z,91.66
2018-05-02T05:09:36.506Z,91.66
2018-05-02T05:10:36.460Z,91.66
2018-05-02T05:11:36.446Z,91.38
2018-05-02T05:12:36.365Z,91.09
2018-05-02T05:13:36.318Z,90.57
2018-05-02T05:14:36.275Z,90.09
2018-05-02T05:15:36.226Z,90.47
2018-05-02T05:16:36.182Z,89.81
2018-05-02T05:17:36.137Z,89.43
2018-05-02T05:18:36.088Z,90.09
2018-05-02T05:19:36.043Z,89.53
2018-05-02T05:20:36.001Z,89.53
2018-05-02T05:21:35.953Z,89.53
2018-05-02T05:22:35.912Z,89.14
2018-05-02T05:23:35.859Z,88.39
2018-05-02T05:24:35.818Z,87.72
2018-05-02T05:25:35.768Z,86.96
2018-05-02T05:26:35.724Z,86.43
2018-05-02T05:27:35.679Z,86.87
2018-05-02T05:28:35.633Z,86.82
2018-05-02T05:29:35.586Z,86.53
2018-05-02T05:30:35.543Z,86.05
2018-05-02T05:31:35.494Z,86.24
2018-05-02T05:32:35.448Z,86.24
2018-05-02T05:33:35.406Z,85.86
2018-05-02T05:34:35.358Z,85.49
2018-05-02T05:35:35.313Z,85.68
2018-05-02T05:36:35.265Z,84.53
2018-05-02T05:37:35.232Z,84.63
2018-05-02T05:38:35.180Z,84.82
2018-05-02T05:39:35.131Z,84.44
2018-05-02T05:40:35.088Z,83.39
2018-05-02T05:41:35.040Z,83.44
2018-05-02T05:42:34.999Z,83.72
2018-05-02T05:43:34.958Z,83.15
2018-05-02T05:44:34.904Z,83.34
2018-05-02T05:45:34.860Z,82.87
2018-05-02T05:46:34.813Z,82.96
2018-05-02T05:47:34.771Z,82.87
2018-05-02T05:48:34.728Z,81.82
2018-05-02T05:49:34.683Z,81.35
2018-05-02T05:50:34.640Z,81.16
2018-05-02T05:51:34.593Z,81.63
2018-05-02T05:52:34.605Z,81.38
2018-05-02T05:53:34.497Z,81.86
2018-05-02T05:54:34.517Z,80.24
2018-05-02T05:55:34.414Z,79.86
2018-05-02T05:56:34.363Z,79.77
2018-05-02T05:57:34.326Z,79.96
2018-05-02T05:58:34.273Z,79.68
2018-05-02T05:59:34.226Z,80.63
2018-05-02T06:00:34.180Z,79.49
2018-05-02T06:01:34.143Z,79.39
2018-05-02T06:02:34.095Z,78.63
2018-05-02T06:03:34.045Z,78.16
2018-05-02T06:04:34.000Z,78.48
2018-05-02T06:05:33.958Z,79.24
2018-05-02T06:06:33.910Z,78.77
2018-05-02T06:07:33.874Z,78.48
2018-05-02T06:08:33.823Z,78.38
2018-05-02T06:09:33.776Z,78.19
2018-05-02T06:10:33.731Z,77.91
2018-05-02T06:11:33.685Z,77.43
2018-05-02T06:12:33.640Z,77.72
2018-05-02T06:13:33.598Z,77.24
2018-05-02T06:14:33.555Z,77.34
2018-05-02T06:15:33.510Z,77.05
2018-05-02T06:16:33.462Z,76.39
2018-05-02T06:17:33.420Z,76.20
2018-05-02T06:18:33.376Z,75.57
2018-05-02T06:19:33.328Z,75.85
2018-05-02T06:20:33.289Z,75.67
2018-05-02T06:21:33.237Z,75.67
2018-05-02T06:22:33.193Z,74.71
2018-05-02T06:23:33.148Z,74.80
2018-05-02T06:24:33.104Z,74.62
2018-05-02T06:25:33.063Z,74.99
2018-05-02T06:26:33.016Z,75.19
2018-05-02T06:27:32.984Z,75.47
2018-05-02T06:28:32.930Z,75.47
2018-05-02T06:29:32.887Z,74.90
2018-05-02T06:30:32.848Z,73.47
2018-05-02T06:31:32.845Z,73.38
2018-05-02T06:32:32.750Z,73.57
2018-05-02T06:33:32.708Z,74.04
2018-05-02T06:34:32.661Z,73.80
2018-05-02T06:35:32.622Z,72.94
2018-05-02T06:36:32.575Z,71.98
2018-05-02T06:37:32.536Z,71.89
2018-05-02T06:38:32.484Z,71.42
2018-05-02T06:39:32.442Z,72.65
2018-05-02T06:40:32.393Z,72.08
2018-05-02T06:41:32.353Z,71.32
2018-05-02T06:42:32.311Z,71.61
2018-05-02T06:43:32.361Z,71.51
2018-05-02T06:44:32.219Z,70.75
2018-05-02T06:45:32.176Z,71.51
2018-05-02T06:46:32.131Z,71.70
2018-05-02T06:47:32.086Z,72.17
2018-05-02T06:48:32.051Z,71.98
2018-05-02T06:49:32.000Z,72.02
2018-05-02T06:50:31.952Z,72.65
2018-05-02T06:51:31.910Z,72.50
2018-05-02T06:52:31.872Z,72.21
2018-05-02T06:53:31.829Z,71.73
2018-05-02T06:54:31.783Z,71.26
2018-05-02T06:55:31.732Z,72.21
2018-05-02T06:57:31.645Z,71.93
2018-05-02T06:58:31.600Z,71.55
2018-05-02T06:59:31.557Z,71.64
2018-05-02T07:00:31.512Z,70.59
2018-05-02T07:01:31.468Z,69.96
2018-05-02T07:02:31.429Z,69.26
2018-05-02T07:03:31.384Z,69.54
2018-05-02T07:04:31.343Z,69.87
2018-05-02T07:05:31.298Z,69.39
2018-05-02T07:06:31.255Z,69.20
2018-05-02T07:07:31.297Z,68.44
2018-05-02T07:08:31.178Z,68.63
2018-05-02T07:09:31.125Z,68.72
2018-05-02T07:10:31.086Z,68.82
2018-05-02T07:11:31.032Z,69.29
2018-05-02T07:12:31.161Z,68.53
2018-05-02T07:13:31.012Z,68.05
2018-05-02T07:14:30.905Z,67.29
2018-05-02T07:15:30.862Z,67.20
2018-05-02T07:16:30.815Z,67.14
2018-05-02T07:17:30.771Z,67.71
2018-05-02T07:18:30.741Z,67.99
2018-05-02T07:19:30.684Z,67.33
2018-05-02T07:20:30.643Z,66.28
2018-05-02T07:21:30.596Z,65.99
2018-05-02T07:22:30.557Z,65.42
2018-05-02T07:23:30.510Z,65.23
2018-05-02T07:24:30.468Z,65.61
2018-05-02T07:25:30.424Z,65.80
2018-05-02T07:26:30.380Z,64.65
2018-05-02T07:27:30.338Z,64.65
2018-05-02T07:28:30.292Z,64.47
2018-05-02T07:29:30.250Z,64.50
2018-05-02T07:30:30.212Z,64.59
2018-05-02T07:31:30.167Z,64.31
2018-05-02T07:32:30.173Z,64.78
2018-05-02T07:33:30.078Z,63.92
2018-05-02T07:34:30.036Z,63.83
2018-05-02T07:35:29.991Z,63.92
2018-05-02T07:36:29.947Z,62.91
2018-05-02T07:37:29.905Z,62.52
2018-05-02T07:38:30.029Z,60.64
2018-05-02T07:39:29.822Z,58.67
2018-05-02T07:40:29.775Z,56.34
2018-05-02T07:41:29.737Z,55.31
2018-05-02T07:42:29.690Z,53.81
2018-05-02T07:43:29.647Z,53.42
2018-05-02T07:44:29.607Z,52.01
2018-05-02T07:45:29.560Z,51.46
2018-05-02T07:46:29.519Z,50.63
2018-05-02T07:47:29.479Z,49.38
2018-05-02T07:48:29.433Z,48.83
2018-05-02T07:49:29.397Z,47.68
2018-05-02T07:50:29.353Z,46.65
2018-05-02T07:51:29.309Z,46.77
2018-05-02T07:52:29.296Z,46.28
2018-05-02T07:53:29.229Z,45.25
2018-05-02T07:54:29.185Z,43.81
2018-05-02T07:55:29.150Z,43.07
2018-05-02T07:56:29.114Z,42.77
2018-05-02T07:57:29.062Z,42.32
2018-05-02T07:58:29.023Z,41.83
2018-05-02T07:59:28.986Z,41.38
2018-05-02T08:00:28.943Z,41.18
2018-05-02T08:01:28.901Z,41.38
2018-05-02T08:02:28.862Z,40.53
2018-05-02T08:03:28.824Z,39.95
2018-05-02T08:04:28.782Z,39.87
2018-05-02T08:05:28.743Z,39.49
2018-05-02T08:06:28.711Z,38.62
2018-05-02T08:07:28.663Z,38.45
2018-05-02T08:08:28.622Z,37.48
2018-05-02T08:09:28.588Z,37.70
2018-05-02T08:10:28.546Z,36.63
2018-05-02T08:11:28.506Z,36.07
2018-05-02T08:12:28.470Z,36.27
2018-05-02T08:13:28.432Z,35.88
2018-05-02T08:14:28.396Z,34.53
2018-05-02T08:15:28.352Z,34.26
2018-05-02T08:16:28.326Z,34.45
2018-05-02T08:17:28.277Z,33.78
2018-05-02T08:18:28.236Z,33.20
2018-05-02T08:19:28.199Z,33.78
2018-05-02T08:20:28.160Z,34.47
2018-05-02T08:21:28.123Z,33.89
2018-05-02T08:22:28.082Z,33.80
2018-05-02T08:23:28.054Z,33.89
2018-05-02T08:24:28.006Z,34.29
2018-05-02T08:25:27.969Z,34.10
2018-05-02T08:26:27.931Z,33.33
2018-05-02T08:27:27.893Z,31.88
2018-05-02T08:28:27.854Z,32.46
2018-05-02T08:29:27.818Z,33.04
2018-05-02T08:30:27.779Z,32.46
2018-05-02T08:31:27.741Z,31.40
2018-05-02T08:32:27.707Z,31.30
2018-05-02T08:33:27.665Z,31.70
2018-05-02T08:34:27.628Z,30.93
2018-05-02T08:35:27.593Z,30.44
2018-05-02T08:36:27.554Z,30.15
2018-05-02T08:37:27.516Z,31.33
2018-05-02T08:38:27.477Z,30.85
2018-05-02T08:39:27.440Z,31.33
2018-05-02T08:40:27.409Z,32.29
2018-05-02T08:41:27.365Z,30.46
2018-05-02T08:42:27.329Z,29.78
2018-05-02T08:43:27.290Z,31.22
2018-05-02T08:44:27.253Z,30.73
2018-05-02T08:45:27.216Z,31.12
2018-05-02T08:46:27.178Z,31.80
2018-05-02T08:47:27.141Z,31.33
2018-05-02T08:48:27.107Z,30.65
2018-05-02T08:49:27.068Z,30.65
2018-05-02T08:50:27.029Z,30.36
2018-05-02T08:51:26.997Z,30.94
2018-05-02T08:52:26.956Z,30.36
2018-05-02T08:53:26.921Z,30.07
2018-05-02T08:54:26.881Z,28.99
2018-05-02T08:55:26.846Z,29.09
2018-05-02T08:56:26.809Z,30.25
2018-05-02T08:57:26.837Z,30.15
2018-05-02T08:58:26.734Z,29.75
2018-05-02T08:59:26.701Z,30.24
2018-05-02T09:00:26.661Z,30.04
2018-05-02T09:01:26.622Z,30.90
2018-05-02T09:02:26.585Z,30.22
2018-05-02T09:03:26.548Z,31.01
2018-05-02T09:04:26.513Z,31.59
2018-05-02T09:05:26.476Z,31.78
2018-05-02T09:06:26.438Z,31.88
2018-05-02T09:07:26.401Z,31.78
2018-05-02T09:08:26.366Z,30.52
2018-05-02T09:09:26.329Z,30.52
2018-05-02T09:10:26.291Z,29.85
2018-05-02T09:11:26.257Z,29.36
2018-05-02T09:12:26.222Z,29.55
2018-05-02T09:13:26.188Z,31.18
2018-05-02T09:14:26.149Z,30.72
2018-05-02T09:15:26.120Z,31.38
2018-05-02T09:16:26.078Z,31.59
2018-05-02T09:17:26.043Z,30.82
2018-05-02T09:18:26.012Z,30.14
2018-05-02T09:19:25.969Z,30.33
2018-05-02T09:20:25.933Z,29.94
2018-05-02T09:21:25.900Z,29.08
2018-05-02T09:22:25.864Z,28.40
2018-05-02T09:23:25.825Z,26.86
2018-05-02T09:24:25.791Z,26.76
2018-05-02T09:25:25.754Z,25.60
2018-05-02T09:26:25.719Z,28.39
2018-05-02T09:27:25.682Z,28.98
2018-05-02T09:28:25.646Z,27.34
2018-05-02T09:29:25.617Z,27.24
2018-05-02T09:30:25.577Z,27.72
2018-05-02T09:31:25.540Z,27.03
2018-05-02T09:32:25.505Z,28.69
2018-05-02T09:33:25.474Z,27.42
2018-05-02T09:34:25.440Z,28.29
2018-05-02T09:35:25.399Z,28.09
2018-05-02T09:36:25.366Z,29.17
2018-05-02T09:37:25.330Z,28.40
2018-05-02T09:38:25.305Z,29.08
2018-05-02T09:39:25.289Z,29.46
2018-05-02T09:40:25.226Z,27.13
2018-05-02T09:41:25.194Z,26.86
2018-05-02T09:42:25.154Z,28.29
2018-05-02T09:43:25.126Z,29.06
2018-05-02T09:44:25.089Z,30.04
2018-05-02T09:45:25.050Z,30.33
2018-05-02T09:46:25.016Z,31.01
2018-05-02T09:47:24.976Z,30.72
2018-05-02T09:48:24.944Z,30.62
2018-05-02T09:49:24.912Z,31.40
2018-05-02T09:50:24.871Z,31.59
2018-05-02T09:52:24.812Z,28.29
2018-05-02T09:53:24.774Z,29.55
2018-05-02T09:54:24.732Z,29.55
2018-05-02T09:55:24.703Z,30.32
2018-05-02T09:56:24.662Z,31.28
2018-05-02T09:57:24.638Z,30.22
2018-05-02T09:58:24.593Z,30.80
2018-05-02T09:59:24.556Z,31.38
2018-05-02T10:00:24.520Z,29.55
2018-05-02T10:01:24.497Z,30.70
2018-05-02T10:02:24.457Z,30.32
2018-05-02T10:03:24.419Z,30.41
2018-05-02T10:04:24.463Z,30.41
2018-05-02T10:05:24.343Z,30.32
2018-05-02T10:06:24.308Z,30.30
2018-05-02T10:07:24.271Z,30.01
2018-05-02T10:08:24.235Z,30.01
2018-05-02T10:09:24.203Z,30.10
2018-05-02T10:10:24.164Z,31.35
2018-05-02T10:11:24.129Z,32.41
2018-05-02T10:12:24.134Z,33.28
2018-05-02T10:13:24.059Z,32.79
2018-05-02T10:14:24.026Z,32.21
2018-05-02T10:15:23.981Z,32.68
2018-05-02T10:16:23.949Z,33.36
2018-05-02T10:17:23.915Z,33.17
2018-05-02T10:18:23.897Z,32.95
2018-05-02T10:19:23.849Z,33.73
2018-05-02T10:20:23.802Z,34.78
2018-05-02T10:21:23.766Z,35.85
2018-05-02T10:22:23.730Z,34.11
2018-05-02T10:23:23.688Z,33.17
2018-05-02T10:24:23.653Z,31.52
2018-05-02T10:25:23.618Z,31.14
2018-05-02T10:26:23.607Z,31.43
2018-05-02T10:27:23.539Z,31.04
2018-05-02T10:28:23.504Z,31.14
2018-05-02T10:29:23.473Z,31.33
2018-05-02T10:30:23.432Z,31.43
2018-05-02T10:31:23.394Z,31.54
2018-05-02T10:32:23.357Z,31.35
2018-05-02T10:33:23.319Z,31.45
2018-05-02T10:34:23.284Z,29.90
2018-05-02T10:35:23.245Z,30.87
2018-05-02T10:36:23.211Z,30.58
2018-05-02T10:37:23.171Z,30.29
2018-05-02T10:38:23.134Z,30.79
2018-05-02T10:39:23.105Z,30.40
2018-05-02T10:40:23.063Z,32.62
2018-05-02T10:41:23.023Z,31.75
2018-05-02T10:42:22.984Z,31.07
2018-05-02T10:43:22.947Z,29.63
2018-05-02T10:44:22.912Z,30.30
2018-05-02T10:45:22.874Z,28.95
2018-05-02T10:46:22.841Z,29.63
2018-05-02T10:47:22.800Z,30.01
2018-05-02T10:48:22.764Z,29.91
2018-05-02T10:49:22.728Z,30.32
2018-05-02T10:50:22.781Z,30.99
2018-05-02T10:51:22.650Z,31.09
2018-05-02T10:52:22.616Z,30.51
2018-05-02T10:53:22.582Z,29.83
2018-05-02T10:54:22.569Z,29.83
2018-05-02T10:55:22.579Z,29.93
2018-05-02T10:56:22.472Z,30.99
2018-05-02T10:57:22.432Z,31.01
2018-05-02T10:58:22.396Z,30.72
2018-05-02T10:59:22.355Z,32.07
2018-05-02T11:00:22.320Z,31.60
2018-05-02T11:01:22.281Z,30.63
2018-05-02T11:02:22.250Z,28.33
2018-05-02T11:03:22.210Z,28.52
2018-05-02T11:04:22.176Z,30.17
2018-05-02T11:05:22.136Z,30.28
2018-05-02T11:06:22.101Z,30.38
2018-05-02T11:07:22.068Z,28.34
2018-05-02T11:08:22.043Z,30.39
2018-05-02T11:09:21.994Z,29.92
2018-05-02T11:10:21.956Z,29.06
2018-05-02T11:11:21.924Z,29.84
2018-05-02T11:12:21.887Z,27.04
2018-05-02T11:13:21.852Z,27.14
2018-05-02T11:14:21.817Z,26.76
2018-05-02T11:15:21.780Z,28.04
2018-05-02T11:16:21.749Z,25.82
2018-05-02T11:17:21.711Z,23.97
2018-05-02T11:18:21.680Z,25.14
2018-05-02T11:19:21.642Z,24.87
2018-05-02T11:20:21.613Z,24.88
2018-05-02T11:21:21.577Z,23.91
2018-05-02T11:22:21.544Z,24.89
2018-05-02T11:23:21.507Z,23.72
2018-05-02T11:24:21.476Z,23.04
2018-05-02T11:25:21.468Z,22.86
2018-05-02T11:26:21.448Z,22.86
2018-05-02T11:27:21.374Z,22.48
2018-05-02T11:28:21.384Z,23.65
2018-05-02T11:29:21.309Z,22.97
2018-05-02T11:30:21.278Z,22.76
2018-05-02T11:31:21.245Z,22.96
2018-05-02T11:32:21.272Z,22.97
2018-05-02T11:33:21.181Z,23.52
2018-05-02T11:34:21.147Z,24.19
2018-05-02T11:35:21.110Z,24.69
2018-05-02T11:36:21.084Z,25.38
2018-05-02T11:37:21.047Z,23.44
2018-05-02T11:38:21.016Z,22.67
2018-05-02T11:39:20.983Z,23.16
2018-05-02T11:40:20.950Z,23.07
2018-05-02T11:41:20.918Z,24.34
2018-05-02T11:42:20.897Z,22.78
2018-05-02T11:43:20.885Z,22.48
2018-05-02T11:44:20.837Z,22.28
2018-05-02T11:45:20.790Z,21.70
2018-05-02T11:46:20.801Z,21.70
2018-05-02T11:47:20.724Z,23.07
2018-05-02T11:48:20.696Z,23.07
2018-05-02T11:49:20.662Z,22.88
2018-05-02T11:50:20.631Z,22.20
2018-05-02T11:51:20.606Z,23.07
2018-05-02T11:52:20.574Z,21.32
2018-05-02T11:53:20.535Z,23.18
2018-05-02T11:54:20.506Z,21.92
2018-05-02T11:55:20.474Z,21.72
2018-05-02T11:56:20.440Z,21.72
2018-05-02T11:57:20.409Z,22.02
2018-05-02T11:58:20.377Z,23.38
2018-05-02T11:59:20.362Z,22.88
2018-05-02T12:00:20.362Z,23.07
2018-05-02T12:01:20.287Z,23.18
2018-05-02T12:02:20.253Z,23.39
2018-05-02T12:03:20.923Z,21.34
2018-05-02T12:04:20.191Z,21.35
2018-05-02T12:05:20.159Z,21.45
2018-05-02T12:06:20.126Z,21.55
2018-05-02T12:07:20.096Z,22.23
2018-05-02T12:08:20.069Z,20.68
2018-05-02T12:09:20.034Z,20.48
2018-05-02T12:10:20.045Z,21.46
2018-05-02T12:11:19.972Z,20.38
2018-05-02T12:12:19.947Z,21.44
2018-05-02T12:13:19.909Z,22.42
2018-05-02T12:14:19.880Z,22.13
2018-05-02T12:15:19.848Z,21.55
2018-05-02T12:16:19.829Z,23.80
2018-05-02T12:17:19.822Z,21.56
2018-05-02T12:18:19.758Z,20.86
2018-05-02T12:19:19.729Z,20.47
2018-05-02T12:20:19.696Z,21.33
2018-05-02T12:21:19.664Z,20.74
2018-05-02T12:22:19.636Z,20.74
2018-05-02T12:23:19.603Z,20.53
2018-05-02T12:24:19.570Z,21.99
2018-05-02T12:25:19.542Z,22.97
2018-05-02T12:26:19.511Z,22.30
2018-05-02T12:27:19.480Z,20.06
2018-05-02T12:28:19.446Z,20.34
2018-05-02T12:29:19.417Z,21.91
2018-05-02T12:30:19.388Z,21.71
2018-05-02T12:31:19.355Z,20.83
2018-05-02T12:32:19.325Z,22.10
2018-05-02T12:33:19.294Z,21.12
2018-05-02T12:34:19.278Z,20.15
2018-05-02T12:35:19.236Z,20.65
2018-05-02T12:36:19.197Z,21.53
2018-05-02T12:37:19.166Z,21.92
2018-05-02T12:38:19.135Z,20.64
2018-05-02T12:39:19.105Z,20.73
2018-05-02T12:40:19.070Z,21.30
2018-05-02T12:41:19.039Z,21.89
2018-05-02T12:42:19.008Z,21.80
2018-05-02T12:43:18.978Z,20.63
2018-05-02T12:44:18.949Z,22.09
2018-05-02T12:45:18.925Z,21.99
2018-05-02T12:46:18.883Z,21.30
2018-05-02T12:47:18.851Z,22.37
2018-05-02T12:48:18.823Z,22.65
2018-05-02T12:49:18.788Z,22.16
2018-05-02T12:50:18.766Z,22.93
2018-05-02T12:51:18.759Z,22.05
2018-05-02T12:52:18.729Z,23.50
2018-05-02T12:53:18.664Z,23.13
2018-05-02T12:54:18.627Z,23.11